createdAt,value
2023-02-18T00:01:37.947Z,25.17
2023-02-18T00:04:05.426Z,24.37
2023-02-18T00:06:35.558Z,24.03
2023-02-18T00:09:05.063Z,27.43
2023-02-18T00:11:35.275Z,25.83
2023-02-18T00:14:04.650Z,25.67
2023-02-18T00:16:32.540Z,23.87
2023-02-18T00:19:05.395Z,22.87
2023-02-18T00:21:34.578Z,24.33
2023-02-18T00:24:02.744Z,23.37
2023-02-18T00:26:30.316Z,22.20
2023-02-18T00:28:57.821Z,23.23
2023-02-18T00:31:31.235Z,23.17
2023-02-18T00:34:01.168Z,20.77
2023-02-18T00:36:29.246Z,21.20
2023-02-18T00:38:59.467Z,19.20
2023-02-18T00:41:29.221Z,23.43
2023-02-18T00:43:57.623Z,26.67
2023-02-18T00:46:25.896Z,21.57
2023-02-18T00:48:54.877Z,20.40
2023-02-18T00:51:23.081Z,23.33
2023-02-18T00:53:50.567Z,20.80
2023-02-18T00:56:18.345Z,22.33
2023-02-18T00:58:45.957Z,21.30
2023-02-18T01:01:13.845Z,23.30
2023-02-18T01:03:42.898Z,21.20
2023-02-18T01:06:12.134Z,24.40
2023-02-18T01:08:40.840Z,23.97
2023-02-18T01:11:10.602Z,24.33
2023-02-18T01:13:38.556Z,24.73
2023-02-18T01:16:08.593Z,25.30
2023-02-18T01:18:37.070Z,26.00
2023-02-18T01:21:08.661Z,25.17
2023-02-18T01:23:38.497Z,23.23
2023-02-18T01:26:06.331Z,22.10
2023-02-18T01:28:34.037Z,23.43
2023-02-18T01:31:09.399Z,27.40
2023-02-18T01:33:37.183Z,22.67
2023-02-18T01:36:05.563Z,19.23
2023-02-18T01:38:33.168Z,23.43
2023-02-18T01:41:01.821Z,21.20
2023-02-18T01:43:29.640Z,27.93
2023-02-18T01:46:08.977Z,23.60
2023-02-18T01:48:46.211Z,24.83
2023-02-18T01:51:17.753Z,24.00
2023-02-18T01:53:56.868Z,26.10
2023-02-18T01:56:28.904Z,23.23
2023-02-18T01:59:00.368Z,24.93
2023-02-18T02:01:28.863Z,21.87
2023-02-18T02:03:56.296Z,26.40
2023-02-18T02:06:26.218Z,23.17
2023-02-18T02:08:59.701Z,25.80
2023-02-18T02:11:30.047Z,24.93
2023-02-18T02:14:00.510Z,23.43
2023-02-18T02:16:49.176Z,24.17
2023-02-18T02:19:42.704Z,20.10
2023-02-18T02:22:28.451Z,22.23
2023-02-18T02:25:08.073Z,18.93
2023-02-18T02:27:44.250Z,24.63
2023-02-18T02:30:30.150Z,24.37
2023-02-18T02:33:28.893Z,24.50
2023-02-18T02:35:59.439Z,25.38
2023-02-18T02:38:34.086Z,22.90
2023-02-18T02:41:18.470Z,26.03
2023-02-18T02:44:07.032Z,18.23
2023-02-18T02:46:51.343Z,19.17
2023-02-18T02:49:38.023Z,22.63
2023-02-18T02:52:12.156Z,24.37
2023-02-18T02:54:40.213Z,28.27
2023-02-18T02:57:13.882Z,21.80
2023-02-18T02:59:59.467Z,23.70
2023-02-18T03:02:46.557Z,19.77
2023-02-18T03:06:07.790Z,23.70
2023-02-18T03:08:52.659Z,22.17
2023-02-18T03:11:20.275Z,24.00
2023-02-18T03:13:53.663Z,24.20
2023-02-18T03:16:36.673Z,19.75
2023-02-18T03:19:16.743Z,29.20
2023-02-18T03:21:59.030Z,30.13
2023-02-18T03:24:34.845Z,29.17
2023-02-18T03:27:15.453Z,32.50
2023-02-18T03:29:46.451Z,35.43
2023-02-18T03:32:18.478Z,35.70
2023-02-18T03:34:50.993Z,43.53
2023-02-18T03:37:19.945Z,42.47
2023-02-18T03:39:56.151Z,45.37
2023-02-18T03:42:28.740Z,40.63
2023-02-18T03:44:56.583Z,38.03
2023-02-18T03:47:25.260Z,30.80
2023-02-18T03:49:52.743Z,43.53
2023-02-18T03:52:20.240Z,39.17
2023-02-18T03:54:47.907Z,45.47
2023-02-18T03:57:15.369Z,46.47
2023-02-18T03:59:42.860Z,47.97
2023-02-18T04:02:10.320Z,32.30
2023-02-18T04:04:37.866Z,40.73
2023-02-18T04:07:05.850Z,40.30
2023-02-18T04:09:33.377Z,33.90
2023-02-18T04:12:00.843Z,37.73
2023-02-18T04:14:28.493Z,29.03
2023-02-18T04:16:55.982Z,28.83
2023-02-18T04:19:23.468Z,24.93
2023-02-18T04:21:51.206Z,31.50
2023-02-18T04:24:18.612Z,29.13
2023-02-18T04:26:46.265Z,33.37
2023-02-18T04:29:13.721Z,36.53
2023-02-18T04:31:41.366Z,36.03
2023-02-18T04:34:08.974Z,30.07
2023-02-18T04:36:36.513Z,35.13
2023-02-18T04:39:04.738Z,32.53
2023-02-18T04:41:32.224Z,34.47
2023-02-18T04:44:00.729Z,36.30
2023-02-18T04:46:28.689Z,33.77
2023-02-18T04:48:56.106Z,38.30
2023-02-18T04:51:24.171Z,35.57
2023-02-18T04:53:51.620Z,36.60
2023-02-18T04:56:19.094Z,29.07
2023-02-18T04:58:46.994Z,37.13
2023-02-18T05:01:14.562Z,39.30
2023-02-18T05:03:42.207Z,34.20
2023-02-18T05:06:10.031Z,35.17
2023-02-18T05:08:37.870Z,30.53
2023-02-18T05:11:07.329Z,27.87
2023-02-18T05:13:34.977Z,27.23
2023-02-18T05:16:02.740Z,22.20
2023-02-18T05:18:30.238Z,25.67
2023-02-18T05:20:57.710Z,23.33
2023-02-18T05:23:26.074Z,25.33
2023-02-18T05:25:55.001Z,26.37
2023-02-18T05:28:22.839Z,26.63
2023-02-18T05:30:50.396Z,25.87
2023-02-18T05:33:17.917Z,27.23
2023-02-18T05:35:45.442Z,21.23
2023-02-18T05:38:12.882Z,27.43
2023-02-18T05:40:40.810Z,25.87
2023-02-18T05:43:08.213Z,28.20
2023-02-18T05:45:36.260Z,30.20
2023-02-18T05:48:03.873Z,29.60
2023-02-18T05:50:31.755Z,27.07
2023-02-18T05:52:59.389Z,25.63
2023-02-18T05:55:27.051Z,26.90
2023-02-18T05:57:54.605Z,27.17
2023-02-18T06:00:22.191Z,25.40
2023-02-18T06:02:51.167Z,24.93
2023-02-18T06:05:18.794Z,24.60
2023-02-18T06:07:46.213Z,30.77
2023-02-18T06:10:13.819Z,26.97
2023-02-18T06:12:41.394Z,27.93
2023-02-18T06:15:09.095Z,28.33
2023-02-18T06:17:36.695Z,25.27
2023-02-18T06:20:04.518Z,20.20
2023-02-18T06:22:32.103Z,24.90
2023-02-18T06:24:59.541Z,28.60
2023-02-18T06:27:27.179Z,26.00
2023-02-18T06:29:54.622Z,27.00
2023-02-18T06:32:22.361Z,28.60
2023-02-18T06:34:49.873Z,27.30
2023-02-18T06:37:17.324Z,27.67
2023-02-18T06:39:44.846Z,24.53
2023-02-18T06:42:13.391Z,21.23
2023-02-18T06:44:42.012Z,22.83
2023-02-18T06:47:09.464Z,21.03
2023-02-18T06:49:37.284Z,21.63
2023-02-18T06:52:05.814Z,18.33
2023-02-18T06:54:34.510Z,16.77
2023-02-18T06:57:02.049Z,20.73
2023-02-18T06:59:29.501Z,17.67
2023-02-18T07:01:56.941Z,17.67
2023-02-18T07:04:24.471Z,17.20
2023-02-18T07:06:51.964Z,18.90
2023-02-18T07:09:19.529Z,19.03
2023-02-18T07:11:46.994Z,16.33
2023-02-18T07:14:14.430Z,14.13
2023-02-18T07:16:42.140Z,15.77
2023-02-18T07:19:09.843Z,15.27
2023-02-18T07:21:37.432Z,15.33
2023-02-18T07:24:05.296Z,14.73
2023-02-18T07:26:32.805Z,11.13
2023-02-18T07:29:00.392Z,11.63
2023-02-18T07:31:28.160Z,13.33
2023-02-18T07:33:57.293Z,14.00
2023-02-18T07:36:24.927Z,10.53
2023-02-18T07:38:52.392Z,12.40
2023-02-18T07:41:22.539Z,11.63
2023-02-18T07:43:50.499Z,9.07
2023-02-18T07:46:19.433Z,11.10
2023-02-18T07:48:47.143Z,12.43
2023-02-18T07:51:14.630Z,8.90
2023-02-18T07:53:42.231Z,9.60
2023-02-18T07:56:10.061Z,9.83
2023-02-18T07:58:39.076Z,8.83
2023-02-18T08:01:08.879Z,11.83
2023-02-18T08:03:36.548Z,7.80
2023-02-18T08:06:05.966Z,9.73
2023-02-18T08:08:36.723Z,8.90
2023-02-18T08:11:18.506Z,10.10
2023-02-18T08:13:47.527Z,10.63
2023-02-18T08:16:16.787Z,10.33
2023-02-18T08:18:44.938Z,9.87
2023-02-18T08:21:12.404Z,9.83
2023-02-18T08:23:40.318Z,7.60
2023-02-18T08:26:08.173Z,8.70
2023-02-18T08:28:43.549Z,9.37
2023-02-18T08:31:20.670Z,10.50
2023-02-18T08:33:48.719Z,8.27
2023-02-18T08:36:16.186Z,8.73
2023-02-18T08:38:43.784Z,12.03
2023-02-18T08:41:11.672Z,8.83
2023-02-18T08:43:39.213Z,9.77
2023-02-18T08:46:06.786Z,10.60
2023-02-18T08:48:34.423Z,7.60
2023-02-18T08:51:15.777Z,8.27
2023-02-18T08:53:43.643Z,9.87
2023-02-18T08:56:11.378Z,7.00
2023-02-18T08:58:39.134Z,6.47
2023-02-18T09:01:09.764Z,8.23
2023-02-18T09:03:37.753Z,7.73
2023-02-18T09:06:05.888Z,7.13
2023-02-18T09:08:33.459Z,8.87
2023-02-18T09:11:04.564Z,8.13
2023-02-18T09:13:33.624Z,8.50
2023-02-18T09:16:04.431Z,7.87
2023-02-18T09:18:33.387Z,7.17
2023-02-18T09:21:01.172Z,9.07
2023-02-18T09:23:30.809Z,7.37
2023-02-18T09:25:59.065Z,9.20
2023-02-18T09:28:27.428Z,8.37
2023-02-18T09:30:55.151Z,9.43
2023-02-18T09:33:22.923Z,8.23
2023-02-18T09:35:50.422Z,7.73
2023-02-18T09:38:18.565Z,9.17
2023-02-18T09:40:52.237Z,7.37
2023-02-18T09:43:35.054Z,8.07
2023-02-18T09:46:04.947Z,9.83
2023-02-18T09:48:36.244Z,9.30
2023-02-18T09:51:04.057Z,9.23
2023-02-18T09:53:31.489Z,11.77
2023-02-18T09:56:00.627Z,10.83
2023-02-18T09:58:31.803Z,13.90
2023-02-18T10:01:11.373Z,11.33
2023-02-18T10:03:40.713Z,12.47
2023-02-18T10:06:16.349Z,10.70
2023-02-18T10:08:47.514Z,9.53
2023-02-18T10:11:28.801Z,8.90
2023-02-18T10:13:58.678Z,8.60
2023-02-18T10:16:26.260Z,9.10
2023-02-18T10:18:59.992Z,18.30
2023-02-18T10:21:31.466Z,7.93
2023-02-18T10:24:16.698Z,10.60
2023-02-18T10:26:44.255Z,9.43
2023-02-18T10:29:20.922Z,8.90
2023-02-18T10:32:19.658Z,9.75
2023-02-18T10:35:24.578Z,12.68
2023-02-18T10:38:16.177Z,9.77
2023-02-18T10:41:09.756Z,8.77
2023-02-18T10:43:53.274Z,10.27
2023-02-18T10:46:58.797Z,8.87
2023-02-18T10:49:54.203Z,9.50
2023-02-18T10:52:22.110Z,9.33
2023-02-18T10:54:58.061Z,10.30
2023-02-18T10:57:26.454Z,13.63
2023-02-18T11:00:19.117Z,9.93
2023-02-18T11:02:48.274Z,9.70
2023-02-18T11:05:24.821Z,8.13
2023-02-18T11:07:54.794Z,9.25
2023-02-18T11:10:27.426Z,9.90
2023-02-18T11:13:02.116Z,10.27
2023-02-18T11:15:30.627Z,11.73
2023-02-18T11:18:26.863Z,11.27
2023-02-18T11:21:00.391Z,10.93
2023-02-18T11:23:28.140Z,15.13
2023-02-18T11:26:03.280Z,12.07
2023-02-18T11:28:45.554Z,10.17
2023-02-18T11:31:25.625Z,11.87
2023-02-18T11:33:57.651Z,11.20
2023-02-18T11:36:43.711Z,11.13
2023-02-18T11:39:27.339Z,11.70
2023-02-18T11:41:58.348Z,10.13
2023-02-18T11:44:34.797Z,11.93
2023-02-18T11:47:20.254Z,9.87
2023-02-18T11:50:01.830Z,11.20
2023-02-18T11:52:39.589Z,10.30
2023-02-18T11:55:15.566Z,9.80
2023-02-18T11:57:52.445Z,7.50
2023-02-18T12:00:22.641Z,8.35
2023-02-18T12:02:53.125Z,8.13
2023-02-18T12:05:27.088Z,7.40
2023-02-18T12:08:24.326Z,8.90
2023-02-18T12:11:01.449Z,9.33
2023-02-18T12:13:34.711Z,9.27
2023-02-18T12:16:30.887Z,8.80
2023-02-18T12:19:42.532Z,8.57
2023-02-18T12:22:50.873Z,8.47
2023-02-18T12:25:40.131Z,11.90
2023-02-18T12:28:25.821Z,9.50
2023-02-18T12:31:15.126Z,9.60
2023-02-18T12:33:48.437Z,9.00
2023-02-18T12:36:40.312Z,9.13
2023-02-18T12:39:31.162Z,7.33
2023-02-18T12:42:07.736Z,9.20
2023-02-18T12:44:45.673Z,9.13
2023-02-18T12:47:37.664Z,9.50
2023-02-18T12:50:42.876Z,8.07
2023-02-18T12:53:16.222Z,10.10
2023-02-18T12:55:51.913Z,8.63
2023-02-18T12:58:30.518Z,10.37
2023-02-18T13:01:23.155Z,11.90
2023-02-18T13:04:18.512Z,9.67
2023-02-18T13:07:01.702Z,9.93
2023-02-18T13:09:50.420Z,9.70
2023-02-18T13:12:29.785Z,10.40
2023-02-18T13:15:02.203Z,14.27
2023-02-18T13:17:36.148Z,9.30
2023-02-18T13:20:14.896Z,9.30
2023-02-18T13:22:43.734Z,12.00
2023-02-18T13:25:15.382Z,8.93
2023-02-18T13:27:48.809Z,10.67
2023-02-18T13:30:45.437Z,10.10
2023-02-18T13:33:38.053Z,11.30
2023-02-18T13:36:23.642Z,11.37
2023-02-18T13:39:01.472Z,9.73
2023-02-18T13:41:28.983Z,11.73
2023-02-18T13:43:56.452Z,13.20
2023-02-18T13:46:25.384Z,10.43
2023-02-18T13:49:00.909Z,7.07
2023-02-18T13:51:41.435Z,9.13
2023-02-18T13:54:26.043Z,8.90
2023-02-18T13:57:05.301Z,8.53
2023-02-18T13:59:44.398Z,8.13
2023-02-18T14:02:21.360Z,10.53
2023-02-18T14:05:09.398Z,12.25
2023-02-18T14:07:44.382Z,11.43
2023-02-18T14:10:18.653Z,11.63
2023-02-18T14:12:58.378Z,9.70
2023-02-18T14:15:25.872Z,9.83
2023-02-18T14:18:12.010Z,13.27
2023-02-18T14:20:39.444Z,12.97
2023-02-18T14:23:19.122Z,10.80
2023-02-18T14:25:57.713Z,12.73
2023-02-18T14:28:33.961Z,8.90
2023-02-18T14:31:13.998Z,9.60
2023-02-18T14:34:04.657Z,11.87
2023-02-18T14:37:09.049Z,10.90
2023-02-18T14:39:48.494Z,9.40
2023-02-18T14:42:56.526Z,11.57
2023-02-18T14:45:31.392Z,12.90
2023-02-18T14:48:17.403Z,10.53
2023-02-18T14:50:50.074Z,9.80
2023-02-18T14:53:21.932Z,11.37
2023-02-18T14:55:56.522Z,8.10
2023-02-18T14:58:32.798Z,9.10
2023-02-18T15:01:30.830Z,10.20
2023-02-18T15:03:58.610Z,7.53
2023-02-18T15:06:33.963Z,6.63
2023-02-18T15:09:13.155Z,9.67
2023-02-18T15:11:51.566Z,9.00
2023-02-18T15:14:24.669Z,7.97
2023-02-18T15:16:53.477Z,9.07
2023-02-18T15:19:24.373Z,8.83
2023-02-18T15:21:55.340Z,11.47
2023-02-18T15:24:32.786Z,13.93
2023-02-18T15:27:04.280Z,12.75
2023-02-18T15:29:36.681Z,11.77
2023-02-18T15:32:16.914Z,10.10
2023-02-18T15:34:45.550Z,8.20
2023-02-18T15:37:15.157Z,7.63
2023-02-18T15:39:43.891Z,8.07
2023-02-18T15:42:20.316Z,10.77
2023-02-18T15:44:51.142Z,7.33
2023-02-18T15:47:20.194Z,7.37
2023-02-18T15:49:54.126Z,7.30
2023-02-18T15:52:32.002Z,7.40
2023-02-18T15:55:15.865Z,9.50
2023-02-18T15:57:43.732Z,8.93
2023-02-18T16:00:20.238Z,7.57
2023-02-18T16:03:05.014Z,8.20
2023-02-18T16:05:38.317Z,7.77
2023-02-18T16:08:14.057Z,11.87
2023-02-18T16:10:51.285Z,9.20
2023-02-18T16:13:19.685Z,10.55
2023-02-18T16:15:50.572Z,7.90
2023-02-18T16:18:42.623Z,7.87
2023-02-18T16:21:19.205Z,12.37
2023-02-18T16:23:56.548Z,12.23
2023-02-18T16:26:43.653Z,7.47
2023-02-18T16:29:16.002Z,8.97
2023-02-18T16:31:43.920Z,9.10
2023-02-18T16:34:11.431Z,9.07
2023-02-18T16:36:59.035Z,7.87
2023-02-18T16:39:29.253Z,11.07
2023-02-18T16:41:59.263Z,10.03
2023-02-18T16:44:26.790Z,8.53
2023-02-18T16:46:54.247Z,8.83
2023-02-18T16:49:21.848Z,10.67
2023-02-18T16:51:49.365Z,8.87
2023-02-18T16:54:16.850Z,8.63
2023-02-18T16:56:44.510Z,7.70
2023-02-18T16:59:12.096Z,9.90
2023-02-18T17:01:44.981Z,8.03
2023-02-18T17:04:18.268Z,11.00
2023-02-18T17:06:46.481Z,8.40
2023-02-18T17:09:17.100Z,10.43
2023-02-18T17:11:47.506Z,9.60
2023-02-18T17:14:19.937Z,9.20
2023-02-18T17:16:49.136Z,9.27
2023-02-18T17:19:17.203Z,9.87
2023-02-18T17:21:46.476Z,10.07
2023-02-18T17:24:18.372Z,9.37
2023-02-18T17:26:45.825Z,7.97
2023-02-18T17:29:13.971Z,9.30
2023-02-18T17:31:45.147Z,10.87
2023-02-18T17:34:19.528Z,8.70
2023-02-18T17:36:47.283Z,10.90
2023-02-18T17:39:17.463Z,9.00
2023-02-18T17:41:45.177Z,9.57
2023-02-18T17:44:16.760Z,8.70
2023-02-18T17:46:44.695Z,9.60
2023-02-18T17:49:15.137Z,8.70
2023-02-18T17:51:43.344Z,12.53
2023-02-18T17:54:16.517Z,8.90
2023-02-18T17:56:44.188Z,11.03
2023-02-18T17:59:12.059Z,9.37
2023-02-18T18:01:40.073Z,11.23
2023-02-18T18:04:19.147Z,9.63
2023-02-18T18:06:47.675Z,13.30
2023-02-18T18:09:15.232Z,9.47
2023-02-18T18:11:42.899Z,13.70
2023-02-18T18:14:16.081Z,11.37
2023-02-18T18:16:43.695Z,10.90
2023-02-18T18:19:11.198Z,9.07
2023-02-18T18:21:38.900Z,9.43
2023-02-18T18:24:06.756Z,9.60
2023-02-18T18:26:34.178Z,11.73
2023-02-18T18:29:01.987Z,12.30
2023-02-18T18:31:32.717Z,12.07
2023-02-18T18:34:01.440Z,10.23
2023-02-18T18:36:29.005Z,9.47
2023-02-18T18:38:56.606Z,11.10
2023-02-18T18:41:24.205Z,8.17
2023-02-18T18:43:51.870Z,9.10
2023-02-18T18:46:19.459Z,8.73
2023-02-18T18:48:47.084Z,9.67
2023-02-18T18:51:22.012Z,9.07
2023-02-18T18:53:49.549Z,11.87
2023-02-18T18:56:17.092Z,9.67
2023-02-18T18:58:44.635Z,10.17
2023-02-18T19:01:22.770Z,9.40
2023-02-18T19:03:50.422Z,11.37
2023-02-18T19:06:18.071Z,9.57
2023-02-18T19:08:47.994Z,11.97
2023-02-18T19:11:16.974Z,13.47
2023-02-18T19:13:45.827Z,9.17
2023-02-18T19:16:22.379Z,8.90
2023-02-18T19:18:50.439Z,8.03
2023-02-18T19:21:18.061Z,9.60
2023-02-18T19:23:45.815Z,11.87
2023-02-18T19:26:16.207Z,10.53
2023-02-18T19:28:45.089Z,8.73
2023-02-18T19:31:13.141Z,9.27
2023-02-18T19:33:41.476Z,9.00
2023-02-18T19:36:11.178Z,12.53
2023-02-18T19:38:39.443Z,10.73
2023-02-18T19:41:12.770Z,11.60
2023-02-18T19:43:42.894Z,8.87
2023-02-18T19:46:17.042Z,11.93
2023-02-18T19:48:49.604Z,10.87
2023-02-18T19:51:17.387Z,9.43
2023-02-18T19:53:46.133Z,9.33
2023-02-18T19:56:13.745Z,10.20
2023-02-18T19:58:41.763Z,10.03
2023-02-18T20:01:13.855Z,9.40
2023-02-18T20:03:41.785Z,10.97
2023-02-18T20:06:17.502Z,10.83
2023-02-18T20:08:46.139Z,11.23
2023-02-18T20:11:13.884Z,9.87
2023-02-18T20:13:42.198Z,10.00
2023-02-18T20:16:11.718Z,8.13
2023-02-18T20:18:39.356Z,10.93
2023-02-18T20:21:09.765Z,9.10
2023-02-18T20:23:37.569Z,10.73
2023-02-18T20:26:12.989Z,10.47
2023-02-18T20:28:41.019Z,9.80
2023-02-18T20:31:12.373Z,10.00
2023-02-18T20:33:42.306Z,12.47
2023-02-18T20:36:12.296Z,9.67
2023-02-18T20:38:39.929Z,9.33
2023-02-18T20:41:14.484Z,9.73
2023-02-18T20:43:42.097Z,10.27
2023-02-18T20:46:13.290Z,9.40
2023-02-18T20:48:40.916Z,11.70
2023-02-18T20:51:13.956Z,10.83
2023-02-18T20:53:42.656Z,12.57
2023-02-18T20:56:10.677Z,11.07
2023-02-18T20:58:38.941Z,11.13
2023-02-18T21:01:12.629Z,10.70
2023-02-18T21:03:41.273Z,10.93
2023-02-18T21:06:15.576Z,13.93
2023-02-18T21:08:45.393Z,11.80
2023-02-18T21:11:22.447Z,11.07
2023-02-18T21:13:51.779Z,15.00
2023-02-18T21:16:21.370Z,10.90
2023-02-18T21:18:49.861Z,13.80
2023-02-18T21:21:19.920Z,11.43
2023-02-18T21:23:47.723Z,10.30
2023-02-18T21:26:19.122Z,11.60
2023-02-18T21:28:48.785Z,8.47
2023-02-18T21:31:21.011Z,10.43
2023-02-18T21:33:51.050Z,10.80
2023-02-18T21:36:19.594Z,12.17
2023-02-18T21:38:56.096Z,12.03
2023-02-18T21:41:24.534Z,11.33
2023-02-18T21:43:52.300Z,13.90
2023-02-18T21:46:24.006Z,10.10
2023-02-18T21:49:06.236Z,11.83
2023-02-18T21:51:57.795Z,11.93
2023-02-18T21:54:27.255Z,11.53
2023-02-18T21:56:56.408Z,11.03
2023-02-18T21:59:29.223Z,12.00
2023-02-18T22:02:00.409Z,13.33
2023-02-18T22:04:33.290Z,10.83
2023-02-18T22:07:01.540Z,11.47
2023-02-18T22:09:29.738Z,10.93
2023-02-18T22:11:57.740Z,14.63
2023-02-18T22:14:25.648Z,10.03
2023-02-18T22:16:53.281Z,12.47
2023-02-18T22:19:20.897Z,10.97
2023-02-18T22:21:49.010Z,11.03
2023-02-18T22:24:18.112Z,12.63
2023-02-18T22:26:46.852Z,12.80
2023-02-18T22:29:15.413Z,13.60
2023-02-18T22:31:43.508Z,12.60
2023-02-18T22:34:11.407Z,11.87
2023-02-18T22:36:39.211Z,13.63
2023-02-18T22:39:07.713Z,11.73
2023-02-18T22:41:35.651Z,13.07
2023-02-18T22:44:07.692Z,15.10
2023-02-18T22:46:36.794Z,12.03
2023-02-18T22:49:06.616Z,12.03
2023-02-18T22:51:40.546Z,14.97
2023-02-18T22:54:15.732Z,14.10
2023-02-18T22:56:44.802Z,11.07
2023-02-18T22:59:14.334Z,11.50
2023-02-18T23:01:44.947Z,13.00
2023-02-18T23:04:15.265Z,12.77
2023-02-18T23:06:45.160Z,11.90
2023-02-18T23:09:24.144Z,12.07
2023-02-18T23:11:58.165Z,12.57
2023-02-18T23:14:28.343Z,14.00
2023-02-18T23:17:12.999Z,12.33
2023-02-18T23:19:48.826Z,13.63
2023-02-18T23:22:28.376Z,14.63
2023-02-18T23:25:00.363Z,16.67
2023-02-18T23:27:28.549Z,13.93
2023-02-18T23:29:56.643Z,11.83
2023-02-18T23:32:24.629Z,15.83
2023-02-18T23:34:52.063Z,13.20
2023-02-18T23:37:40.635Z,12.03
2023-02-18T23:40:09.649Z,11.87
2023-02-18T23:42:37.118Z,13.10
2023-02-18T23:45:04.912Z,13.30
2023-02-18T23:47:32.494Z,10.67
2023-02-18T23:50:00.001Z,12.30
2023-02-18T23:52:27.484Z,13.27
2023-02-18T23:54:54.932Z,14.77
2023-02-18T23:57:22.401Z,12.53
2023-02-18T23:59:49.915Z,11.03
